Lanchester, United Kingdom
Current Conditions -  °F | °C
As of 6:20 AM on Thursday 29 Jan 2015 (Local Time) from EGNT Reporting Station
Snow Showers Snow Showers  
Wind Chill: -6°   Ceiling: 1500
Heat Index:   Visibility: 2.5mi
Dew Point: -1°   Wind: 24mph
Humidity: 87%   Direction: 260°W
Pressure: 28.91"   Gusts: NA
Location:  54.82°N, 1.74°W
Report Text: EGNT 290620Z 26021KT 4000 SHSN SCT006 BKN015 01/M01 Q0979 R25/510195
Loading
Personal Weather Stations






























Interactive Weather Map New forecast layout! Learn more

10-Day Weather Forecast

Advertisements
Track Severe Weather on mobile